Time;durP1;ratioP1;P1;durP2;ratioP2;P2;SDS_P1;SDS_P2;PMS_P1;PMS_P2;Temp;Humidity;BMP_temperature;BMP_pressure;BME280_temperature;BME280_humidity;BME280_pressure;Samples;Min_cycle;Max_cycle;Signal;HPM_P1;HPM_P2
2022/09/03 00:05:26;;;;;;;3.70;1.90;;;;;;;11.86;70.46;99295.94;4449178;77;20980;-85
2022/09/03 00:12:20;;;;;;;6.22;2.62;;;;;;;11.86;70.59;99302.80;4470175;76;20963;-84
2022/09/03 00:18:29;;;;;;;4.70;2.20;;;;;;;11.81;70.49;99303.70;4489911;77;21016;-84
2022/09/03 00:24:50;;;;;;;4.85;2.05;;;;;;;11.78;71.09;99298.97;4513896;77;21004;-84
2022/09/03 00:52:10;;;;;;;4.40;2.08;;;;;;;11.55;72.13;99289.48;4220744;83;22036;-84
2022/09/03 00:58:26;;;;;;;4.35;2.25;;;;;;;11.47;71.89;99288.39;4216655;81;21014;-84
2022/09/03 01:11:54;;;;;;;5.08;1.87;;;;;;;11.16;74.05;99278.63;4245790;79;21672;-84
2022/09/03 01:18:25;;;;;;;4.15;2.33;;;;;;;11.14;74.48;99286.41;4459491;77;20951;-84
2022/09/03 01:25:18;;;;;;;4.75;2.45;;;;;;;10.99;73.98;99287.39;4475037;77;21800;-84
2022/09/03 01:39:34;;;;;;;5.47;1.95;;;;;;;10.60;74.75;99288.77;4514787;77;20948;-84
2022/09/03 01:45:59;;;;;;;5.42;2.02;;;;;;;10.65;75.28;99290.59;4392876;79;20985;-84
2022/09/03 01:52:19;;;;;;;5.65;2.20;;;;;;;10.58;76.02;99288.34;4391112;79;21015;-84
2022/09/03 02:05:29;;;;;;;3.55;2.15;;;;;;;10.35;76.60;99280.73;4309323;80;20992;-84
2022/09/03 02:11:34;;;;;;;4.90;2.17;;;;;;;10.44;77.07;99295.75;4375073;80;20979;-85
2022/09/03 02:24:08;;;;;;;5.00;1.98;;;;;;;10.37;77.60;99296.99;4302131;80;20995;-85
2022/09/03 02:30:17;;;;;;;3.62;2.12;;;;;;;10.22;77.63;99301.22;4442768;77;21361;-85
2022/09/03 02:43:38;;;;;;;4.20;2.27;;;;;;;10.10;77.89;99303.55;4330754;80;21860;-84
2022/09/03 02:49:59;;;;;;;6.75;1.90;;;;;;;9.99;78.00;99303.14;4184167;83;20982;-84
2022/09/03 02:56:11;;;;;;;4.08;2.17;;;;;;;10.00;78.98;99307.44;4213553;82;20956;-84
2022/09/03 03:02:33;;;;;;;9.78;4.15;;;;;;;9.91;78.83;99312.36;4301100;81;20986;-84
2022/09/03 03:08:34;;;;;;;6.97;3.08;;;;;;;9.92;79.70;99316.09;4355635;80;21935;-84
2022/09/03 03:34:35;;;;;;;7.12;3.98;;;;;;;9.23;79.91;99314.33;4315837;80;20987;-84
2022/09/03 03:40:38;;;;;;;10.48;4.62;;;;;;;9.06;80.64;99312.01;4306602;79;22489;-84
2022/09/03 03:46:42;;;;;;;10.65;4.78;;;;;;;8.99;80.82;99307.73;4484055;78;21006;-84
2022/09/03 03:52:47;;;;;;;8.20;4.70;;;;;;;8.92;81.16;99310.33;4488882;78;21003;-84
2022/09/03 03:59:03;;;;;;;7.53;4.28;;;;;;;8.85;81.58;99310.72;4478442;78;21027;-84
2022/09/03 04:05:22;;;;;;;8.08;4.22;;;;;;;8.84;81.61;99313.23;4482142;79;21080;-84
2022/09/03 04:11:33;;;;;;;8.08;3.95;;;;;;;8.78;82.12;99314.10;4488745;79;21050;-83
2022/09/03 04:17:36;;;;;;;7.22;3.77;;;;;;;8.76;82.39;99318.31;4327409;79;22238;-85
2022/09/03 04:30:15;;;;;;;9.20;4.10;;;;;;;8.62;83.26;99311.96;4465225;78;21531;-84
2022/09/03 04:42:59;;;;;;;8.23;4.05;;;;;;;8.76;84.33;99321.05;4463776;78;21059;-84
2022/09/03 04:49:28;;;;;;;7.05;3.85;;;;;;;8.98;84.70;99331.31;4439398;79;21073;-84
2022/09/03 04:55:36;;;;;;;7.55;3.67;;;;;;;9.14;84.41;99323.31;4455149;78;21030;-84
2022/09/03 05:02:33;;;;;;;6.87;3.47;;;;;;;9.22;85.10;99322.28;4454617;78;21874;-84
2022/09/03 05:08:40;;;;;;;6.35;3.35;;;;;;;9.42;85.13;99324.47;4431478;78;20961;-84
2022/09/03 05:21:47;;;;;;;7.42;3.60;;;;;;;9.91;85.10;99334.23;4415672;77;21833;-83
2022/09/03 05:28:00;;;;;;;8.03;3.42;;;;;;;10.05;85.12;99339.41;4423051;77;21002;-84
2022/09/03 05:34:35;;;;;;;5.92;2.92;;;;;;;10.23;84.89;99339.73;4464790;77;20971;-84
2022/09/03 05:40:37;;;;;;;6.70;3.25;;;;;;;10.29;84.11;99334.20;4464744;77;20972;-84
2022/09/03 05:46:44;;;;;;;8.38;3.42;;;;;;;10.46;85.17;99324.13;4470896;77;21051;-83
2022/09/03 05:52:46;;;;;;;6.15;2.83;;;;;;;10.67;85.32;99329.93;4475340;77;20961;-84
2022/09/03 05:58:55;;;;;;;5.80;3.05;;;;;;;10.89;85.77;99330.47;4459858;77;21544;-84
2022/09/03 06:05:00;;;;;;;6.87;3.00;;;;;;;11.08;85.27;99335.27;4447261;77;21492;-84
2022/09/03 06:11:05;;;;;;;7.80;3.45;;;;;;;11.24;85.19;99341.16;4469998;77;21544;-84
2022/09/03 06:17:10;;;;;;;5.15;2.77;;;;;;;11.36;85.39;99329.95;4449395;77;21513;-84
2022/09/03 06:23:15;;;;;;;8.05;3.40;;;;;;;11.52;85.23;99338.78;4476371;77;21061;-84
2022/09/03 06:29:19;;;;;;;4.85;3.25;;;;;;;11.67;85.37;99340.56;4442589;77;20975;-85
2022/09/03 06:35:20;;;;;;;5.58;3.65;;;;;;;11.83;85.42;99339.20;4491161;77;21024;-84
2022/09/03 06:41:35;;;;;;;9.00;3.70;;;;;;;12.05;85.91;99327.88;4450392;77;21018;-84
2022/09/03 06:47:45;;;;;;;8.58;3.37;;;;;;;12.29;85.98;99325.37;4460134;77;21052;-84
2022/09/03 06:53:55;;;;;;;5.80;3.27;;;;;;;12.49;85.96;99331.45;4486448;77;21859;-84
2022/09/03 06:59:58;;;;;;;10.03;3.10;;;;;;;12.68;85.64;99338.09;4471715;77;20933;-85
2022/09/03 07:06:09;;;;;;;6.45;3.40;;;;;;;12.78;85.61;99344.23;4481900;77;20992;-83
2022/09/03 07:12:17;;;;;;;5.30;3.47;;;;;;;12.94;85.58;99356.31;4469047;77;21574;-84
2022/09/03 07:18:18;;;;;;;6.03;3.30;;;;;;;13.10;85.64;99359.03;4427385;77;21085;-86
2022/09/03 07:24:23;;;;;;;7.28;3.22;;;;;;;13.29;85.61;99369.77;4461252;77;21005;-84
2022/09/03 07:30:25;;;;;;;7.00;3.98;;;;;;;13.41;85.65;99362.56;4478644;77;21002;-84
2022/09/03 07:36:29;;;;;;;6.00;3.30;;;;;;;13.56;85.80;99364.80;4471154;77;21526;-84
2022/09/03 07:42:31;;;;;;;8.03;3.83;;;;;;;13.80;85.67;99356.66;4326747;80;21039;-84
2022/09/03 07:48:33;;;;;;;7.75;3.87;;;;;;;14.03;85.54;99354.97;4467451;78;21009;-84
2022/09/03 07:54:40;;;;;;;8.60;3.45;;;;;;;14.27;85.26;99352.11;4460406;78;20991;-84
2022/09/03 08:00:45;;;;;;;7.97;3.33;;;;;;;14.50;85.30;99362.95;4326391;80;21067;-84
2022/09/03 08:06:47;;;;;;;8.30;3.40;;;;;;;14.77;85.11;99365.53;4337486;79;21096;-84
2022/09/03 08:13:04;;;;;;;5.60;3.10;;;;;;;15.00;84.92;99362.38;4344753;79;21022;-84
2022/09/03 08:19:28;;;;;;;7.28;3.20;;;;;;;15.20;84.80;99353.88;4344369;79;21102;-85
2022/09/03 08:25:29;;;;;;;5.25;3.10;;;;;;;15.55;84.67;99356.60;4358433;79;21056;-84
2022/09/03 08:31:33;;;;;;;5.87;3.42;;;;;;;15.80;84.09;99359.27;4351934;79;20966;-85
2022/09/03 08:37:50;;;;;;;6.92;3.40;;;;;;;15.99;83.81;99359.55;4451938;78;20960;-86
2022/09/03 08:44:26;;;;;;;5.97;3.83;;;;;;;15.98;82.36;99356.61;4464770;78;21501;-84
2022/09/03 08:50:43;;;;;;;4.25;3.27;;;;;;;15.92;82.84;99358.22;4458980;78;21646;-84
2022/09/03 08:56:45;;;;;;;4.67;2.97;;;;;;;16.00;82.74;99358.97;4470478;78;21004;-84
2022/09/03 09:03:09;;;;;;;5.15;3.33;;;;;;;15.96;82.46;99354.84;4456070;78;21024;-85
2022/09/03 09:09:48;;;;;;;8.43;3.27;;;;;;;16.05;82.35;99358.55;4441546;78;21006;-83
2022/09/03 09:16:16;;;;;;;6.75;3.80;;;;;;;16.05;81.86;99360.73;4463555;77;21043;-83
2022/09/03 09:22:42;;;;;;;8.35;3.70;;;;;;;16.04;81.61;99367.42;4467706;76;20989;-85
2022/09/03 09:28:59;;;;;;;5.30;3.92;;;;;;;16.10;81.53;99374.09;4480509;77;22006;-84
2022/09/03 09:35:00;;;;;;;6.20;4.15;;;;;;;16.12;81.03;99370.34;4483668;77;21020;-83
2022/09/03 09:41:18;;;;;;;7.08;4.75;;;;;;;16.05;80.84;99375.13;4473480;79;21017;-82
2022/09/03 09:47:34;;;;;;;7.53;4.95;;;;;;;15.94;79.25;99371.04;4470099;77;20999;-85
2022/09/03 09:53:36;;;;;;;7.55;4.08;;;;;;;16.05;79.06;99367.64;4307339;81;21080;-85
2022/09/03 09:59:39;;;;;;;7.12;5.12;;;;;;;16.36;80.04;99367.25;4487493;77;20984;-84
2022/09/03 10:05:56;;;;;;;6.67;4.25;;;;;;;16.71;79.96;99361.52;4478689;77;21034;-84
2022/09/03 10:12:33;;;;;;;7.25;4.50;;;;;;;16.99;79.47;99351.61;4486332;77;21586;-85
2022/09/03 10:19:00;;;;;;;6.78;3.85;;;;;;;17.66;79.69;99353.11;4497837;77;20981;-85
2022/09/03 10:32:01;;;;;;;4.25;3.58;;;;;;;18.05;77.52;99360.34;4425021;77;22258;-83
2022/09/03 10:38:35;;;;;;;7.17;4.50;;;;;;;17.52;76.18;99369.09;4447105;78;20947;-85
2022/09/03 10:51:21;;;;;;;5.25;3.42;;;;;;;16.78;76.07;99375.28;4465165;78;21020;-85
2022/09/03 10:57:48;;;;;;;5.47;3.52;;;;;;;16.85;76.61;99371.09;4442897;78;21022;-86
2022/09/03 11:04:22;;;;;;;6.42;3.50;;;;;;;16.80;76.59;99357.70;4458236;77;21050;-86
2022/09/03 11:10:47;;;;;;;7.30;4.00;;;;;;;16.86;76.56;99361.59;4460013;77;21034;-85
2022/09/03 11:17:43;;;;;;;3.98;2.98;;;;;;;16.87;76.66;99353.47;4449901;78;20958;-85
2022/09/03 11:23:49;;;;;;;4.40;3.12;;;;;;;17.01;76.45;99342.28;4442281;77;21585;-84
2022/09/03 11:30:13;;;;;;;5.47;3.30;;;;;;;17.16;76.80;99350.03;4316516;80;20979;-84
2022/09/03 11:36:37;;;;;;;4.15;2.98;;;;;;;17.34;75.03;99349.09;4450846;78;21569;-85
2022/09/03 11:42:43;;;;;;;4.47;2.90;;;;;;;17.64;75.90;99333.94;4469645;78;21033;-85
2022/09/03 11:48:51;;;;;;;3.87;3.02;;;;;;;18.13;74.53;99325.80;4455042;78;21518;-85
2022/09/03 11:54:59;;;;;;;3.20;2.40;;;;;;;18.33;72.98;99321.73;4451662;78;21596;-85
2022/09/03 12:01:19;;;;;;;4.10;2.95;;;;;;;18.54;73.67;99329.16;4442740;77;21434;-85
2022/09/03 12:08:07;;;;;;;3.75;2.62;;;;;;;18.58;72.37;99322.97;4437128;78;21031;-85
2022/09/03 12:21:00;;;;;;;5.40;2.77;;;;;;;18.82;71.51;99321.59;4363201;80;21616;-86
2022/09/03 12:27:04;;;;;;;3.77;2.67;;;;;;;18.66;71.43;99308.38;4359880;78;21495;-86
2022/09/03 12:33:12;;;;;;;7.30;3.80;;;;;;;18.59;71.13;99299.57;4447006;78;21045;-84
2022/09/03 12:39:23;;;;;;;3.98;3.08;;;;;;;18.59;70.12;99298.19;4391110;79;21758;-86
2022/09/03 12:45:49;;;;;;;4.40;3.22;;;;;;;18.57;70.51;99292.27;4402536;79;20986;-85
2022/09/03 12:52:00;;;;;;;4.78;3.22;;;;;;;18.63;70.59;99287.05;4419048;78;20966;-85
2022/09/03 12:58:42;;;;;;;4.40;2.77;;;;;;;18.62;70.19;99285.48;4451782;78;21291;-83
2022/09/03 13:04:46;;;;;;;4.42;3.00;;;;;;;18.60;70.29;99281.72;4426442;78;20943;-85
2022/09/03 13:10:52;;;;;;;4.17;2.90;;;;;;;18.41;69.95;99280.27;4427218;77;21361;-85
2022/09/03 13:17:24;;;;;;;4.17;3.57;;;;;;;18.50;69.58;99282.70;4463576;78;21002;-86
2022/09/03 13:23:58;;;;;;;9.28;3.50;;;;;;;18.42;69.73;99284.01;4437934;77;21037;-84
2022/09/03 13:36:35;;;;;;;7.08;3.22;;;;;;;18.33;69.69;99289.28;4455676;77;20977;-85
2022/09/03 13:42:47;;;;;;;5.60;2.83;;;;;;;18.34;68.84;99278.95;4466476;77;21045;-84
2022/09/03 13:56:03;;;;;;;4.22;3.25;;;;;;;18.22;69.45;99283.70;4429926;77;21914;-85
2022/09/03 14:02:46;;;;;;;4.42;3.05;;;;;;;18.26;69.21;99276.91;4482891;77;20956;-84
2022/09/03 14:09:15;;;;;;;4.47;3.37;;;;;;;18.23;69.27;99288.03;4440515;77;21026;-85
2022/09/03 14:15:51;;;;;;;4.90;3.05;;;;;;;18.35;69.53;99293.02;4453610;77;21403;-85
2022/09/03 14:22:01;;;;;;;4.73;3.53;;;;;;;18.43;69.64;99284.19;4454359;78;21015;-85
2022/09/03 14:28:41;;;;;;;8.08;5.10;;;;;;;18.46;69.92;99277.80;4462497;77;21520;-85
2022/09/03 14:35:17;;;;;;;5.70;3.65;;;;;;;18.36;69.49;99282.89;4448362;76;21014;-86
2022/09/03 14:48:36;;;;;;;5.20;4.00;;;;;;;18.07;69.95;99290.05;4466021;77;21051;-86
2022/09/03 14:55:27;;;;;;;5.67;3.62;;;;;;;18.03;70.16;99288.53;4458130;77;21377;-85
2022/09/03 15:01:44;;;;;;;4.10;3.45;;;;;;;17.89;70.14;99291.50;4473839;76;22013;-85
2022/09/03 15:08:30;;;;;;;5.20;3.45;;;;;;;17.81;70.45;99290.02;4468421;77;21052;-86
2022/09/03 15:14:55;;;;;;;6.65;3.95;;;;;;;17.74;70.47;99285.97;4416847;77;21887;-85
2022/09/03 15:21:37;;;;;;;5.90;4.20;;;;;;;17.69;70.95;99285.05;4471637;77;21829;-85
2022/09/03 15:27:56;;;;;;;10.43;4.58;;;;;;;17.67;71.00;99279.92;4479453;76;20959;-85
2022/09/03 15:34:26;;;;;;;5.03;4.15;;;;;;;17.57;71.06;99276.67;4471787;77;20963;-84
2022/09/03 15:40:55;;;;;;;6.28;3.90;;;;;;;17.49;71.48;99275.22;4498913;77;20976;-85
2022/09/03 15:53:39;;;;;;;9.05;5.83;;;;;;;17.36;71.50;99280.28;4500620;76;21016;-86
2022/09/03 16:00:03;;;;;;;8.50;5.37;;;;;;;17.37;71.91;99273.56;4485483;76;21548;-84
2022/09/03 16:06:51;;;;;;;6.87;4.40;;;;;;;17.33;72.29;99269.45;4459474;79;20963;-85
2022/09/03 16:13:07;;;;;;;5.83;4.37;;;;;;;17.23;72.29;99268.37;4492949;76;21004;-85
2022/09/03 16:19:36;;;;;;;7.07;4.30;;;;;;;17.19;72.56;99262.69;4487136;76;21031;-84
2022/09/03 16:26:19;;;;;;;6.55;4.37;;;;;;;17.20;72.72;99265.05;4462455;77;21484;-82
2022/09/03 16:32:55;;;;;;;9.83;4.80;;;;;;;17.19;72.66;99262.69;4478089;77;20944;-85
2022/09/03 16:39:19;;;;;;;10.48;4.22;;;;;;;17.18;72.77;99270.20;4537827;76;20964;-86
2022/09/03 16:52:47;;;;;;;;;;;;;;;17.15;72.90;99258.58;4512235;76;21592;-85
2022/09/03 16:59:15;;;;;;;6.53;4.35;;;;;;;17.14;73.18;99267.28;4504592;76;20576;-85
2022/09/03 17:27:03;;;;;;;7.50;5.40;;;;;;;16.86;74.02;99278.64;4499588;76;21439;-85
2022/09/03 17:54:22;;;;;;;14.00;7.33;;;;;;;16.17;75.60;99293.98;4493684;77;20963;-84
2022/09/03 18:07:45;;;;;;;14.30;7.35;;;;;;;15.88;76.39;99301.45;4065060;86;21108;-84
2022/09/03 20:12:20;;;;;;;14.23;9.00;;;;;;;13.44;84.49;99363.16;4411393;78;21019;-84
2022/09/03 20:18:53;;;;;;;13.90;8.70;;;;;;;13.34;85.14;99365.86;4405986;78;20983;-83
2022/09/03 20:25:39;;;;;;;13.28;9.13;;;;;;;13.19;85.37;99363.60;4401013;78;21067;-83
2022/09/03 20:32:05;;;;;;;14.25;8.98;;;;;;;13.09;85.78;99365.68;4219373;79;21164;-84
2022/09/03 20:38:49;;;;;;;14.47;9.13;;;;;;;13.01;86.38;99368.78;4260105;80;21018;-83
2022/09/03 20:45:08;;;;;;;11.88;8.53;;;;;;;13.00;86.60;99375.42;4346298;80;21500;-84
2022/09/03 20:51:26;;;;;;;14.73;8.93;;;;;;;12.93;86.93;99375.36;4354488;80;21065;-83
2022/09/03 20:57:55;;;;;;;13.75;9.08;;;;;;;12.89;87.11;99383.56;4349611;79;21058;-83
2022/09/03 21:04:21;;;;;;;13.53;9.58;;;;;;;12.75;87.05;99384.05;4338716;80;21004;-84
2022/09/03 21:10:29;;;;;;;13.63;9.10;;;;;;;12.67;87.39;99381.04;4356085;80;21004;-84
2022/09/03 21:17:08;;;;;;;14.65;8.25;;;;;;;12.64;87.54;99379.82;4345844;79;21039;-83
2022/09/03 21:23:40;;;;;;;11.48;8.15;;;;;;;12.58;87.51;99391.75;4273401;81;21081;-83
2022/09/03 21:30:04;;;;;;;10.88;7.45;;;;;;;12.48;87.94;99386.94;4354091;79;21022;-83
2022/09/03 21:36:15;;;;;;;15.98;8.38;;;;;;;12.40;88.37;99390.00;4494531;76;21037;-82
2022/09/03 21:42:27;;;;;;;12.33;7.58;;;;;;;12.37;88.54;99391.53;4475667;76;20998;-83
2022/09/03 21:48:43;;;;;;;19.10;10.72;;;;;;;12.29;88.47;99386.36;4483301;77;21824;-83
2022/09/03 21:54:50;;;;;;;13.72;9.23;;;;;;;12.17;88.62;99398.38;4458508;77;21473;-83
2022/09/03 22:01:05;;;;;;;14.55;8.73;;;;;;;12.06;88.39;99393.36;4456528;78;20964;-83
2022/09/03 22:08:13;;;;;;;12.10;8.60;;;;;;;11.84;88.98;99396.23;4499557;76;21550;-83
2022/09/03 22:14:20;;;;;;;12.65;8.80;;;;;;;11.86;89.44;99402.12;4500129;76;20955;-83
2022/09/03 22:20:24;;;;;;;13.55;8.68;;;;;;;11.71;89.34;99388.03;4335279;80;21014;-83
2022/09/03 22:26:50;;;;;;;12.90;8.75;;;;;;;11.66;89.80;99382.30;4499867;77;21029;-83
2022/09/03 22:33:27;;;;;;;14.90;8.80;;;;;;;11.64;90.02;99387.92;4439663;77;21054;-83
2022/09/03 22:39:41;;;;;;;15.80;10.32;;;;;;;11.62;90.41;99389.64;4479760;76;21470;-84
2022/09/03 22:52:20;;;;;;;14.35;10.40;;;;;;;11.56;90.62;99381.53;4540703;77;22795;-83
2022/09/03 22:58:32;;;;;;;13.50;10.15;;;;;;;11.48;91.00;99383.97;4471207;78;21350;-83
2022/09/03 23:04:51;;;;;;;14.38;9.63;;;;;;;11.46;91.15;99395.11;4464928;78;21070;-84
2022/09/03 23:11:04;;;;;;;13.65;9.95;;;;;;;11.44;91.33;99394.11;4471862;78;21477;-83
2022/09/03 23:17:11;;;;;;;14.75;9.70;;;;;;;11.32;91.56;99388.86;4466168;78;21073;-85
2022/09/03 23:23:23;;;;;;;11.93;8.80;;;;;;;11.29;92.03;99384.69;4467606;78;20982;-83
2022/09/03 23:29:54;;;;;;;14.45;10.03;;;;;;;11.33;92.38;99392.37;4466761;78;20976;-84
2022/09/03 23:36:20;;;;;;;14.55;9.75;;;;;;;11.34;92.33;99388.48;4466385;78;21026;-84
2022/09/03 23:42:47;;;;;;;14.07;10.55;;;;;;;11.27;92.56;99390.54;4463528;78;22009;-84
2022/09/03 23:49:22;;;;;;;17.90;11.57;;;;;;;11.22;92.72;99384.57;4473162;78;21014;-84
2022/09/03 23:56:05;;;;;;;16.67;11.70;;;;;;;11.15;92.90;99387.99;4481297;78;20984;-83
